Big Moose, New York
Current Conditions -  °F | °C
As of 12:58 PM on Thursday 23 Oct 2014 (Local Time) from KGTB Reporting Station
Overcast Overcast  
Wind Chill: 51°   Ceiling: 2800
Heat Index: 51°   Visibility: 10mi
Dew Point: 37°   Wind: 17mph
Humidity: 60%   Direction: 50°NE
Pressure: 29.97"   Gusts: NA
Location:  43.8364°N, 74.9967°W
Report Text: KGTB 231658Z AUTO 05015KT 10SM OVC028 10/03 A2997 RMK AO2 SLP152 T01030029
Loading
Personal Weather Stations






























Interactive Weather Map
Tropical Storm Tracking
New forecast layout! Learn more

10-Day Weather Forecast

Advertisements
Track Severe Weather on mobile